createdAt,value
2023-11-22T00:08:17.977Z,12.68
2023-11-22T00:18:19.693Z,13.40
2023-11-22T00:28:21.300Z,12.00
2023-11-22T00:38:23.098Z,12.60
2023-11-22T00:48:24.717Z,13.20
2023-11-22T00:58:26.737Z,13.27
2023-11-22T01:08:28.518Z,13.65
2023-11-22T01:18:30.226Z,11.68
2023-11-22T01:28:35.481Z,13.55
2023-11-22T01:38:40.826Z,12.05
2023-11-22T01:48:42.515Z,12.77
2023-11-22T01:58:45.293Z,11.70
2023-11-22T02:08:47.057Z,13.57
2023-11-22T02:18:49.388Z,10.88
2023-11-22T02:28:51.120Z,10.80
2023-11-22T02:38:52.928Z,9.68
2023-11-22T02:48:57.181Z,9.90
2023-11-22T02:58:59.194Z,8.98
2023-11-22T03:09:00.843Z,8.18
2023-11-22T03:19:12.029Z,8.80
2023-11-22T03:29:17.612Z,7.53
2023-11-22T03:39:19.292Z,6.68
2023-11-22T03:49:20.972Z,7.00
2023-11-22T03:59:25.271Z,6.72
2023-11-22T04:09:27.036Z,6.35
2023-11-22T04:19:29.742Z,5.90
2023-11-22T04:29:31.951Z,7.13
2023-11-22T04:39:33.625Z,8.13
2023-11-22T04:49:35.295Z,9.15
2023-11-22T04:59:37.028Z,7.63
2023-11-22T05:09:38.726Z,8.32
2023-11-22T05:19:41.989Z,8.32
2023-11-22T05:29:50.545Z,7.20
2023-11-22T05:39:59.012Z,5.47
2023-11-22T05:50:00.714Z,5.93
2023-11-22T06:00:02.410Z,6.63
2023-11-22T06:10:06.916Z,5.83
2023-11-22T06:20:10.776Z,4.82
2023-11-22T06:40:24.772Z,3.92
2023-11-22T06:50:26.514Z,5.20
2023-11-22T07:00:29.818Z,5.13
2023-11-22T07:10:38.149Z,5.20
2023-11-22T07:20:41.321Z,5.70
2023-11-22T07:30:43.375Z,5.07
2023-11-22T07:40:45.163Z,4.93
2023-11-22T07:50:50.313Z,6.07
2023-11-22T08:00:53.024Z,5.75
2023-11-22T08:10:55.417Z,6.05
2023-11-22T08:21:00.100Z,6.07
2023-11-22T08:31:03.226Z,5.50
2023-11-22T08:41:07.370Z,4.83
2023-11-22T08:51:09.298Z,4.63
2023-11-22T09:01:18.914Z,5.20
2023-11-22T09:11:23.543Z,5.22
2023-11-22T09:21:29.779Z,5.57
2023-11-22T09:31:33.385Z,4.80
2023-11-22T09:41:36.801Z,4.70
2023-11-22T09:51:43.042Z,4.40
2023-11-22T10:01:44.797Z,4.63
2023-11-22T10:11:47.540Z,4.25
2023-11-22T10:22:07.597Z,3.83
2023-11-22T10:32:11.849Z,4.35
2023-11-22T10:42:14.124Z,3.80
2023-11-22T10:52:20.646Z,3.90
2023-11-22T11:02:24.807Z,4.05
2023-11-22T11:12:28.746Z,4.38
2023-11-22T11:22:33.063Z,4.30
2023-11-22T11:32:36.616Z,5.35
2023-11-22T11:42:45.239Z,5.45
2023-11-22T11:52:46.995Z,7.25
2023-11-22T12:02:49.956Z,6.43
2023-11-22T12:12:51.808Z,7.00
2023-11-22T12:22:57.320Z,7.43
2023-11-22T12:33:11.139Z,6.72
2023-11-22T12:43:15.405Z,8.88
2023-11-22T12:53:18.265Z,8.40
2023-11-22T13:03:20.106Z,10.07
2023-11-22T13:13:33.955Z,9.90
2023-11-22T13:23:37.244Z,9.45
2023-11-22T13:33:40.326Z,9.70
2023-11-22T13:43:42.084Z,10.88
2023-11-22T13:53:55.412Z,9.80
2023-11-22T14:03:58.314Z,10.05
2023-11-22T14:14:07.811Z,8.70
2023-11-22T14:24:36.698Z,8.70
2023-11-22T14:35:05.600Z,8.48
2023-11-22T14:54:55.699Z,8.35
2023-11-22T15:18:13.055Z,6.57
2023-11-22T15:28:33.145Z,6.20
2023-11-22T15:38:50.389Z,6.68
2023-11-22T15:59:52.177Z,5.82
2023-11-22T16:10:19.998Z,5.40
2023-11-22T16:31:32.468Z,7.22
2023-11-22T16:51:53.071Z,8.50
2023-11-22T17:01:54.912Z,10.57
2023-11-22T17:11:56.658Z,10.00
2023-11-22T17:21:58.556Z,11.93
2023-11-22T17:32:06.872Z,10.63
2023-11-22T17:42:08.859Z,12.18
2023-11-22T17:52:11.329Z,11.00
2023-11-22T18:02:14.792Z,12.30
2023-11-22T18:12:16.933Z,12.35
2023-11-22T18:22:20.151Z,12.90
2023-11-22T18:32:26.846Z,13.63
2023-11-22T18:42:30.849Z,12.55
2023-11-22T18:52:34.100Z,13.48
2023-11-22T19:02:36.711Z,12.68
2023-11-22T19:12:42.698Z,12.90
2023-11-22T19:22:45.077Z,12.45
2023-11-22T19:32:47.939Z,11.50
2023-11-22T19:42:50.462Z,13.13
2023-11-22T19:52:53.717Z,12.70
2023-11-22T20:02:59.629Z,12.67
2023-11-22T20:13:03.425Z,13.88
2023-11-22T20:23:07.279Z,14.57
2023-11-22T20:33:11.940Z,15.15
2023-11-22T20:43:14.180Z,15.63
2023-11-22T20:53:18.463Z,15.55
2023-11-22T21:03:20.378Z,14.45
2023-11-22T21:13:22.943Z,16.70
2023-11-22T21:23:25.775Z,15.07
2023-11-22T21:33:28.701Z,16.80
2023-11-22T21:43:30.488Z,16.13
2023-11-22T21:53:32.230Z,16.80
2023-11-22T22:03:34.177Z,15.88
2023-11-22T22:13:36.141Z,15.70
2023-11-22T22:23:38.894Z,16.55
2023-11-22T22:33:40.886Z,16.33
2023-11-22T22:43:42.560Z,16.45
2023-11-22T22:53:44.817Z,17.00
2023-11-22T23:03:46.621Z,16.38
2023-11-22T23:13:48.980Z,16.23
2023-11-22T23:23:50.793Z,16.15
2023-11-22T23:33:56.250Z,15.00
2023-11-22T23:43:58.241Z,16.02
2023-11-22T23:54:00.470Z,17.60
